Time;durP1;ratioP1;P1;durP2;ratioP2;P2;SDS_P1;SDS_P2;PMS_P1;PMS_P2;Temp;Humidity;BMP_temperature;BMP_pressure;BME280_temperature;BME280_humidity;BME280_pressure;Samples;Min_cycle;Max_cycle;Signal;HPM_P1;HPM_P2
2024/03/22 00:00:39;;;;;;;56.47;34.73;;;14.40;99.90;;;;;;7285078;19;20197;-79
2024/03/22 00:03:05;;;;;;;53.63;32.70;;;14.40;99.90;;;;;;7285519;19;20185;-80
2024/03/22 00:05:31;;;;;;;55.67;33.63;;;14.50;99.90;;;;;;7281723;19;20193;-79
2024/03/22 00:07:57;;;;;;;55.53;32.97;;;14.50;99.90;;;;;;7269899;19;20182;-78
2024/03/22 00:10:22;;;;;;;54.17;33.57;;;14.40;99.90;;;;;;7302834;19;20229;-78
2024/03/22 00:12:49;;;;;;;55.60;34.20;;;14.40;99.90;;;;;;7299277;19;20209;-79
2024/03/22 00:15:15;;;;;;;56.17;33.90;;;14.40;99.90;;;;;;7283568;19;20201;-79
2024/03/22 00:17:43;;;;;;;52.67;33.40;;;14.40;99.90;;;;;;7283473;19;20197;-79
2024/03/22 00:20:09;;;;;;;55.03;32.03;;;14.40;99.90;;;;;;7286090;19;20877;-79
2024/03/22 00:22:35;;;;;;;55.70;33.47;;;14.40;99.90;;;;;;7285626;19;20791;-79
2024/03/22 00:25:00;;;;;;;51.43;32.37;;;14.40;99.90;;;;;;7281466;19;20258;-79
2024/03/22 00:27:26;;;;;;;56.13;33.93;;;14.40;99.90;;;;;;7285669;19;20201;-78
2024/03/22 00:29:52;;;;;;;54.17;32.33;;;14.40;99.90;;;;;;7306287;19;20198;-78
2024/03/22 00:32:18;;;;;;;51.80;31.30;;;14.40;99.90;;;;;;7285635;19;20201;-79
2024/03/22 00:34:43;;;;;;;49.10;32.37;;;14.40;99.90;;;;;;7285545;19;20189;-79
2024/03/22 00:37:09;;;;;;;59.37;32.80;;;14.40;99.90;;;;;;7285072;19;20257;-79
2024/03/22 00:39:35;;;;;;;50.47;31.23;;;14.40;99.90;;;;;;7282423;19;20189;-78
2024/03/22 00:42:01;;;;;;;55.13;33.23;;;14.30;99.90;;;;;;7282812;19;20297;-79
2024/03/22 00:44:27;;;;;;;52.03;32.83;;;14.40;99.90;;;;;;7284489;19;20246;-79
2024/03/22 00:46:53;;;;;;;52.07;32.83;;;14.50;99.90;;;;;;7295236;19;20181;-78
2024/03/22 00:49:19;;;;;;;52.37;32.30;;;14.60;99.90;;;;;;7302932;19;20177;-79
2024/03/22 00:51:44;;;;;;;54.47;32.70;;;14.60;99.90;;;;;;7281946;19;20719;-79
2024/03/22 00:54:10;;;;;;;50.73;31.73;;;14.70;99.90;;;;;;7284415;19;20212;-79
2024/03/22 00:56:36;;;;;;;51.83;32.37;;;14.60;99.90;;;;;;7285237;19;20648;-79
2024/03/22 00:59:02;;;;;;;49.80;32.50;;;14.70;99.90;;;;;;7284866;19;20178;-79
2024/03/22 01:01:28;;;;;;;54.00;32.47;;;14.60;99.90;;;;;;7283323;19;20206;-79
2024/03/22 01:03:53;;;;;;;53.47;33.33;;;14.70;99.90;;;;;;7292777;19;20194;-81
2024/03/22 01:06:24;;;;;;;49.53;32.70;;;14.60;99.90;;;;;;7307203;19;20240;-78
2024/03/22 01:08:51;;;;;;;50.20;32.40;;;14.60;99.90;;;;;;7282697;19;20196;-78
2024/03/22 01:11:17;;;;;;;51.40;31.67;;;14.50;99.90;;;;;;7281573;19;20188;-78
2024/03/22 01:13:43;;;;;;;49.03;30.80;;;14.40;99.90;;;;;;7282778;19;20214;-78
2024/03/22 01:16:09;;;;;;;51.63;32.23;;;14.40;99.90;;;;;;7283623;19;20618;-78
2024/03/22 01:18:36;;;;;;;52.47;32.53;;;14.30;99.90;;;;;;7282969;19;20180;-78
2024/03/22 01:21:02;;;;;;;52.43;31.97;;;14.20;99.90;;;;;;7281662;19;20189;-78
2024/03/22 01:23:28;;;;;;;50.50;31.73;;;14.10;99.90;;;;;;7267473;19;20196;-79
2024/03/22 01:25:54;;;;;;;50.43;30.50;;;14.00;99.90;;;;;;7289191;19;20202;-79
2024/03/22 01:28:19;;;;;;;47.13;30.50;;;14.00;99.90;;;;;;7303655;19;21002;-78
2024/03/22 01:30:45;;;;;;;53.90;31.27;;;14.00;99.90;;;;;;7272518;19;20204;-81
2024/03/22 01:33:11;;;;;;;50.97;30.30;;;14.10;99.90;;;;;;7282026;19;20206;-81
2024/03/22 01:35:37;;;;;;;49.23;30.03;;;14.10;99.90;;;;;;7279063;19;20189;-78
2024/03/22 01:38:03;;;;;;;48.73;30.63;;;14.00;99.90;;;;;;7280209;19;20209;-79
2024/03/22 01:40:28;;;;;;;49.73;28.97;;;14.00;99.90;;;;;;7279569;19;20211;-79
2024/03/22 01:42:57;;;;;;;45.33;28.70;;;14.00;99.90;;;;;;7284153;19;20181;-79
2024/03/22 01:45:24;;;;;;;51.50;29.67;;;14.00;99.90;;;;;;7294888;19;20221;-79
2024/03/22 01:47:53;;;;;;;51.00;29.53;;;14.00;99.90;;;;;;7305639;19;20180;-78
2024/03/22 01:50:21;;;;;;;49.70;29.07;;;14.00;99.90;;;;;;7283238;19;20185;-79
2024/03/22 01:52:46;;;;;;;45.87;28.23;;;14.00;99.90;;;;;;7281034;19;20177;-79
2024/03/22 01:55:12;;;;;;;47.03;28.90;;;14.00;99.90;;;;;;7284090;19;20198;-79
2024/03/22 01:57:38;;;;;;;44.07;28.70;;;13.90;99.90;;;;;;7281105;19;20200;-79
2024/03/22 02:00:09;;;;;;;48.40;28.13;;;13.90;99.90;;;;;;7281498;19;20249;-79
2024/03/22 02:02:39;;;;;;;50.13;30.37;;;13.90;99.90;;;;;;7283849;19;20209;-79
2024/03/22 02:05:15;;;;;;;52.10;29.03;;;13.90;99.90;;;;;;7287664;19;20197;-79
2024/03/22 02:07:42;;;;;;;47.13;29.07;;;13.80;99.90;;;;;;7282469;19;20202;-79
2024/03/22 02:10:10;;;;;;;46.27;29.60;;;13.80;99.90;;;;;;7282617;19;20179;-79
2024/03/22 02:12:37;;;;;;;47.97;29.57;;;13.70;99.90;;;;;;7284623;19;20228;-78
2024/03/22 02:15:03;;;;;;;45.30;29.67;;;13.70;99.90;;;;;;7279272;19;20190;-79
2024/03/22 02:17:29;;;;;;;46.10;28.60;;;13.50;99.90;;;;;;7279189;19;20254;-78
2024/03/22 02:19:55;;;;;;;45.23;28.27;;;13.50;99.90;;;;;;7282703;19;20201;-78
2024/03/22 02:22:21;;;;;;;44.43;28.33;;;13.50;99.90;;;;;;7304221;19;20220;-79
2024/03/22 02:24:46;;;;;;;47.57;29.23;;;13.40;99.90;;;;;;7280171;19;20215;-79
2024/03/22 02:27:12;;;;;;;44.93;29.13;;;13.40;99.90;;;;;;7281052;19;20186;-79
2024/03/22 02:29:38;;;;;;;48.30;28.10;;;13.30;99.90;;;;;;7278436;19;20198;-79
2024/03/22 02:32:04;;;;;;;47.40;27.87;;;13.30;99.90;;;;;;7281513;19;20196;-79
2024/03/22 02:34:30;;;;;;;50.37;28.97;;;13.30;99.90;;;;;;7277843;19;20185;-79
2024/03/22 02:36:55;;;;;;;43.70;27.30;;;13.40;99.90;;;;;;7281640;19;20341;-79
2024/03/22 02:39:21;;;;;;;45.80;27.63;;;13.40;99.90;;;;;;7306010;19;20671;-78
2024/03/22 02:41:47;;;;;;;46.20;28.73;;;13.30;99.90;;;;;;7282903;19;20196;-79
2024/03/22 02:44:12;;;;;;;43.83;27.13;;;13.10;99.90;;;;;;7279355;19;20197;-79
2024/03/22 02:46:38;;;;;;;43.90;27.83;;;13.10;99.90;;;;;;7280764;19;20294;-78
2024/03/22 02:49:04;;;;;;;41.97;26.70;;;13.10;99.90;;;;;;7282334;19;20191;-78
2024/03/22 02:51:30;;;;;;;45.00;27.27;;;13.20;99.90;;;;;;7281993;19;20192;-78
2024/03/22 02:53:55;;;;;;;42.40;26.97;;;13.30;99.90;;;;;;7281368;19;20199;-79
2024/03/22 02:56:21;;;;;;;45.53;26.47;;;13.30;99.90;;;;;;7302737;19;20227;-78
2024/03/22 02:58:49;;;;;;;44.70;26.93;;;13.20;99.90;;;;;;7283717;19;20700;-80
2024/03/22 03:01:15;;;;;;;44.33;26.67;;;13.30;99.90;;;;;;7283382;19;20195;-79
2024/03/22 03:03:41;;;;;;;43.87;26.43;;;13.30;99.90;;;;;;7279173;19;20199;-79
2024/03/22 03:06:06;;;;;;;42.33;26.43;;;13.30;99.90;;;;;;7283213;19;20207;-79
2024/03/22 03:08:32;;;;;;;40.80;25.37;;;13.30;99.90;;;;;;7282116;19;20692;-79
2024/03/22 03:10:58;;;;;;;40.37;25.33;;;13.30;99.90;;;;;;7278642;19;20192;-79
2024/03/22 03:13:24;;;;;;;39.27;25.07;;;13.30;99.90;;;;;;7297195;19;20210;-79
2024/03/22 03:15:50;;;;;;;40.23;25.17;;;13.30;99.90;;;;;;7280460;19;20191;-80
2024/03/22 03:18:16;;;;;;;42.40;24.53;;;13.30;99.90;;;;;;7281598;19;20208;-80
2024/03/22 03:20:41;;;;;;;40.60;24.73;;;13.40;99.90;;;;;;7267702;19;20565;-79
2024/03/22 03:23:08;;;;;;;42.47;24.93;;;13.40;99.90;;;;;;7279170;19;20627;-79
2024/03/22 03:25:33;;;;;;;37.17;23.67;;;13.40;99.90;;;;;;7279760;19;20289;-79
2024/03/22 03:27:59;;;;;;;38.87;23.67;;;13.50;99.90;;;;;;7277675;19;20699;-79
2024/03/22 03:30:25;;;;;;;38.80;23.13;;;13.40;99.90;;;;;;7299920;19;20203;-79
2024/03/22 03:32:51;;;;;;;38.63;23.83;;;13.40;99.90;;;;;;7286832;19;20264;-79
2024/03/22 03:35:17;;;;;;;37.13;22.20;;;13.40;99.90;;;;;;7290042;19;20197;-79
2024/03/22 03:37:43;;;;;;;36.50;22.57;;;13.40;99.90;;;;;;7287580;19;20231;-79
2024/03/22 03:40:09;;;;;;;35.73;22.83;;;13.40;99.90;;;;;;7288408;19;20199;-79
2024/03/22 03:42:34;;;;;;;41.47;21.47;;;13.50;99.90;;;;;;7286033;19;20190;-80
2024/03/22 03:45:00;;;;;;;38.93;22.60;;;13.50;99.90;;;;;;7287766;19;20686;-79
2024/03/22 03:47:26;;;;;;;34.33;21.27;;;13.60;99.90;;;;;;7300517;19;20188;-78
2024/03/22 03:49:52;;;;;;;33.80;20.67;;;13.70;99.90;;;;;;7305820;19;20534;-79
2024/03/22 03:52:18;;;;;;;34.53;20.87;;;13.70;99.90;;;;;;7287720;19;20250;-79
2024/03/22 03:54:43;;;;;;;33.80;20.53;;;13.70;99.90;;;;;;7290616;19;20665;-79
2024/03/22 03:57:09;;;;;;;35.97;21.00;;;13.80;99.90;;;;;;7283917;19;20577;-79
2024/03/22 03:59:35;;;;;;;33.97;20.90;;;13.80;99.90;;;;;;7286011;19;20201;-79
2024/03/22 04:02:01;;;;;;;35.80;21.10;;;13.80;99.90;;;;;;7288787;19;20254;-79
2024/03/22 04:04:26;;;;;;;33.60;20.53;;;13.70;99.90;;;;;;7297236;19;20193;-79
2024/03/22 04:06:52;;;;;;;34.50;20.83;;;13.60;99.90;;;;;;7306884;19;20219;-79
2024/03/22 04:09:18;;;;;;;31.40;20.73;;;13.60;99.90;;;;;;7284820;19;20682;-79
2024/03/22 04:11:44;;;;;;;36.10;20.13;;;13.50;99.90;;;;;;7286706;19;20260;-78
2024/03/22 04:14:11;;;;;;;33.83;20.63;;;13.60;99.90;;;;;;7286765;19;20195;-79
2024/03/22 04:16:36;;;;;;;32.50;20.07;;;13.60;99.90;;;;;;7285613;19;20185;-79
2024/03/22 04:19:02;;;;;;;33.30;19.97;;;13.60;99.90;;;;;;7286047;19;20537;-79
2024/03/22 04:21:28;;;;;;;33.57;20.03;;;13.50;99.90;;;;;;7286149;19;20546;-79
2024/03/22 04:23:53;;;;;;;31.77;19.97;;;13.50;99.90;;;;;;7299707;19;20181;-79
2024/03/22 04:26:20;;;;;;;34.87;19.83;;;13.50;99.90;;;;;;7291445;19;20206;-79
2024/03/22 04:28:46;;;;;;;35.13;21.10;;;13.50;99.90;;;;;;7283962;19;20292;-79
2024/03/22 04:31:13;;;;;;;35.80;19.77;;;13.40;99.90;;;;;;7286975;19;20213;-79
2024/03/22 04:33:38;;;;;;;32.63;19.97;;;13.30;99.90;;;;;;7285818;19;20206;-79
2024/03/22 04:36:04;;;;;;;32.90;20.80;;;13.40;99.90;;;;;;7283457;19;20193;-79
2024/03/22 04:38:30;;;;;;;31.63;20.60;;;13.40;99.90;;;;;;7285755;19;20194;-79
2024/03/22 04:40:57;;;;;;;36.97;21.80;;;13.40;99.90;;;;;;7300160;19;20187;-79
2024/03/22 04:43:24;;;;;;;34.80;20.60;;;13.30;99.90;;;;;;7307151;19;20196;-79
2024/03/22 04:45:50;;;;;;;34.07;20.27;;;13.20;99.90;;;;;;7284628;19;20663;-79
2024/03/22 04:48:21;;;;;;;33.60;20.33;;;13.20;99.90;;;;;;7286424;19;20270;-79
2024/03/22 04:50:50;;;;;;;32.77;19.30;;;13.20;99.90;;;;;;7287332;19;20186;-79
2024/03/22 04:53:21;;;;;;;34.80;19.90;;;13.20;99.90;;;;;;7286743;19;26205;-79
2024/03/22 04:55:48;;;;;;;35.73;19.67;;;13.10;99.90;;;;;;7280291;19;20280;-79
2024/03/22 04:58:15;;;;;;;31.67;19.57;;;13.10;99.90;;;;;;7286472;19;20207;-79
2024/03/22 05:00:42;;;;;;;31.93;19.60;;;13.10;99.90;;;;;;7283944;19;20204;-79
2024/03/22 05:03:07;;;;;;;31.67;18.83;;;13.10;99.90;;;;;;7284895;19;20546;-79
2024/03/22 05:05:34;;;;;;;33.37;19.53;;;13.20;99.90;;;;;;7283294;19;20209;-79
2024/03/22 05:08:01;;;;;;;34.00;19.57;;;13.20;99.90;;;;;;7287111;19;20192;-79
2024/03/22 05:10:28;;;;;;;35.93;19.07;;;13.20;99.90;;;;;;7291621;19;20559;-79
2024/03/22 05:12:55;;;;;;;30.20;19.13;;;13.20;99.90;;;;;;7306756;19;20201;-79
2024/03/22 05:15:21;;;;;;;33.27;19.20;;;13.10;99.90;;;;;;7284708;19;20256;-79
2024/03/22 05:17:49;;;;;;;31.87;18.93;;;13.10;99.90;;;;;;7286844;19;20195;-80
2024/03/22 05:20:16;;;;;;;31.27;18.77;;;13.10;99.90;;;;;;7283733;19;20601;-79
2024/03/22 05:22:42;;;;;;;31.53;18.47;;;13.10;99.90;;;;;;7284172;19;20208;-79
2024/03/22 05:25:08;;;;;;;34.50;19.83;;;13.10;99.90;;;;;;7285088;19;20210;-78
2024/03/22 05:27:34;;;;;;;32.87;19.93;;;13.10;99.90;;;;;;7285647;19;20637;-79
2024/03/22 05:30:00;;;;;;;30.33;18.93;;;13.10;99.90;;;;;;7269923;19;20195;-80
2024/03/22 05:32:26;;;;;;;35.87;20.20;;;13.20;99.90;;;;;;7299654;19;20198;-79
2024/03/22 05:34:53;;;;;;;36.40;20.53;;;13.10;99.90;;;;;;7307025;19;20237;-80
2024/03/22 05:37:19;;;;;;;36.17;20.07;;;13.10;99.90;;;;;;7285219;19;20179;-80
2024/03/22 05:39:45;;;;;;;33.63;19.50;;;13.10;99.90;;;;;;7286255;19;20756;-80
2024/03/22 05:42:10;;;;;;;39.77;20.00;;;13.00;99.90;;;;;;7283925;19;20196;-79
2024/03/22 05:44:36;;;;;;;36.00;19.83;;;12.90;99.90;;;;;;7282418;19;20196;-79
2024/03/22 05:47:02;;;;;;;34.53;20.23;;;13.00;99.90;;;;;;7283287;19;20283;-81
2024/03/22 05:49:28;;;;;;;34.93;20.07;;;13.00;99.90;;;;;;7284599;19;20193;-80
2024/03/22 05:51:53;;;;;;;33.23;18.83;;;13.00;99.90;;;;;;7300056;19;20192;-81
2024/03/22 05:54:20;;;;;;;37.63;20.90;;;12.90;99.90;;;;;;7283155;19;20188;-80
2024/03/22 05:56:45;;;;;;;36.47;20.77;;;12.90;99.90;;;;;;7303052;19;20219;-81
2024/03/22 05:59:11;;;;;;;41.07;20.77;;;13.00;99.90;;;;;;7283313;19;20208;-81
2024/03/22 06:01:38;;;;;;;37.67;20.60;;;13.00;99.90;;;;;;7304212;19;20259;-81
2024/03/22 06:04:05;;;;;;;36.67;19.83;;;13.10;99.90;;;;;;7289309;19;20213;-81
2024/03/22 06:06:35;;;;;;;33.13;18.27;;;13.20;99.90;;;;;;7292686;19;20623;-81
2024/03/22 06:09:08;;;;;;;33.73;18.90;;;13.10;99.90;;;;;;7394891;19;20153;-81
2024/03/22 06:11:34;;;;;;;32.07;19.30;;;12.90;99.90;;;;;;7399137;19;20152;-81
2024/03/22 06:14:01;;;;;;;32.27;18.50;;;12.80;99.90;;;;;;7403460;19;20160;-81
2024/03/22 06:16:26;;;;;;;32.77;18.57;;;12.70;99.90;;;;;;7329396;19;20207;-80
2024/03/22 06:18:52;;;;;;;35.10;19.03;;;12.60;99.90;;;;;;7300388;19;20327;-81
2024/03/22 06:21:25;;;;;;;29.00;17.17;;;12.70;99.90;;;;;;7277621;19;20703;-82
2024/03/22 06:23:52;;;;;;;28.37;16.50;;;12.60;99.90;;;;;;7283040;19;20596;-81
2024/03/22 06:26:18;;;;;;;28.47;16.23;;;12.70;99.90;;;;;;7283465;19;20190;-81
2024/03/22 06:28:44;;;;;;;26.87;15.00;;;12.60;99.90;;;;;;7280362;19;20207;-80
2024/03/22 06:31:09;;;;;;;25.00;14.57;;;12.40;99.90;;;;;;7281022;19;20194;-81
2024/03/22 06:33:35;;;;;;;24.57;13.60;;;12.40;99.90;;;;;;7281153;19;20206;-81
2024/03/22 06:36:03;;;;;;;27.30;14.33;;;12.50;99.90;;;;;;7322173;19;20255;-81
2024/03/22 06:38:29;;;;;;;25.67;13.40;;;12.60;99.90;;;;;;7276665;19;20194;-80
2024/03/22 06:40:54;;;;;;;28.73;14.70;;;12.50;99.90;;;;;;7301760;19;20191;-81
2024/03/22 06:43:20;;;;;;;25.87;14.33;;;12.60;99.90;;;;;;7281096;19;20198;-81
2024/03/22 06:45:46;;;;;;;27.93;14.23;;;12.50;99.90;;;;;;7278299;19;20202;-81
2024/03/22 06:48:12;;;;;;;30.90;14.40;;;12.70;99.90;;;;;;7277882;19;20227;-79
2024/03/22 06:50:37;;;;;;;27.80;14.93;;;12.70;99.90;;;;;;7281253;19;20194;-79
2024/03/22 06:53:04;;;;;;;27.20;14.40;;;12.70;99.90;;;;;;7286928;19;20189;-79
2024/03/22 06:55:30;;;;;;;27.37;14.77;;;12.80;99.90;;;;;;7280216;19;20293;-79
2024/03/22 06:57:55;;;;;;;27.60;15.13;;;12.70;99.90;;;;;;7303298;19;20291;-79
2024/03/22 07:00:21;;;;;;;33.80;14.87;;;12.70;99.90;;;;;;7281203;19;20695;-79
2024/03/22 07:02:47;;;;;;;28.53;14.73;;;12.70;99.90;;;;;;7282126;19;20241;-80
2024/03/22 07:05:13;;;;;;;30.27;15.53;;;12.70;99.90;;;;;;7281038;19;20191;-78
2024/03/22 07:07:38;;;;;;;32.57;16.33;;;12.80;99.90;;;;;;7281262;19;20186;-78
2024/03/22 07:10:07;;;;;;;28.57;15.13;;;12.80;99.90;;;;;;7279935;19;20215;-80
2024/03/22 07:12:34;;;;;;;27.43;14.97;;;12.90;99.90;;;;;;7281217;19;20193;-79
2024/03/22 07:15:00;;;;;;;31.07;14.83;;;12.80;99.90;;;;;;7279272;19;20189;-78
2024/03/22 07:17:26;;;;;;;31.40;15.60;;;12.90;99.90;;;;;;7297000;19;20609;-78
2024/03/22 07:19:52;;;;;;;28.37;14.93;;;12.70;99.90;;;;;;7297977;19;20191;-78
2024/03/22 07:22:19;;;;;;;28.33;13.87;;;12.80;99.90;;;;;;7280440;19;20713;-79
2024/03/22 07:24:45;;;;;;;28.67;14.80;;;12.80;99.90;;;;;;7280143;19;20224;-79
2024/03/22 07:27:11;;;;;;;29.83;15.70;;;12.90;99.90;;;;;;7280682;19;20190;-78
2024/03/22 07:29:37;;;;;;;27.53;15.47;;;12.90;99.90;;;;;;7279111;19;20213;-79
2024/03/22 07:32:03;;;;;;;30.90;15.97;;;12.90;99.90;;;;;;7281353;19;20218;-78
2024/03/22 07:34:30;;;;;;;32.40;16.20;;;12.90;99.90;;;;;;7278618;19;20185;-78
2024/03/22 07:36:56;;;;;;;31.50;16.67;;;13.00;99.90;;;;;;7304441;19;20195;-78
2024/03/22 07:39:21;;;;;;;31.67;17.00;;;12.90;99.90;;;;;;7280163;19;20203;-79
2024/03/22 07:41:47;;;;;;;31.37;17.67;;;12.90;99.90;;;;;;7281029;19;20178;-78
2024/03/22 07:44:13;;;;;;;32.77;16.97;;;12.90;99.90;;;;;;7276537;19;20190;-79
2024/03/22 07:46:39;;;;;;;36.27;17.80;;;13.00;99.90;;;;;;7280330;19;20213;-78
2024/03/22 07:49:05;;;;;;;34.87;16.87;;;12.90;99.90;;;;;;7280494;19;20211;-79
2024/03/22 07:51:30;;;;;;;31.47;16.57;;;13.00;99.90;;;;;;7278271;19;20200;-79
2024/03/22 07:53:56;;;;;;;33.23;17.87;;;13.00;99.90;;;;;;7297307;19;20674;-78
2024/03/22 07:56:22;;;;;;;30.80;18.00;;;13.10;99.90;;;;;;7292094;19;20187;-79
2024/03/22 07:58:48;;;;;;;30.40;17.23;;;13.10;99.90;;;;;;7280606;19;20179;-79
2024/03/22 08:01:13;;;;;;;30.47;17.90;;;13.10;99.90;;;;;;7278877;19;20196;-79
2024/03/22 08:03:39;;;;;;;31.97;18.33;;;13.00;99.90;;;;;;7279716;19;20236;-79
2024/03/22 08:06:05;;;;;;;29.83;16.87;;;13.10;99.90;;;;;;7272229;19;20191;-79
2024/03/22 08:08:31;;;;;;;30.67;16.90;;;13.20;99.90;;;;;;7277784;19;20181;-79
2024/03/22 08:10:56;;;;;;;27.10;15.33;;;13.30;99.90;;;;;;7294101;19;20292;-78
2024/03/22 08:13:22;;;;;;;28.80;15.73;;;13.20;99.90;;;;;;7292135;19;20188;-79
2024/03/22 08:15:48;;;;;;;29.40;16.07;;;13.20;99.90;;;;;;7279430;19;20635;-79
2024/03/22 08:18:14;;;;;;;27.10;15.13;;;13.10;99.90;;;;;;7280988;19;20187;-79
2024/03/22 08:20:39;;;;;;;27.73;14.97;;;13.10;99.90;;;;;;7284565;19;20184;-79
2024/03/22 08:23:06;;;;;;;28.60;15.33;;;13.10;99.90;;;;;;7284505;19;20189;-78
2024/03/22 08:25:31;;;;;;;27.63;15.10;;;13.10;99.90;;;;;;7286080;19;20207;-79
2024/03/22 08:27:58;;;;;;;26.43;14.90;;;13.10;99.90;;;;;;7295745;19;20191;-79
2024/03/22 08:30:24;;;;;;;27.60;14.97;;;13.20;99.90;;;;;;7303768;19;20642;-79
2024/03/22 08:32:51;;;;;;;24.13;14.37;;;13.30;99.90;;;;;;7286795;19;20202;-79
2024/03/22 08:35:16;;;;;;;26.10;14.50;;;13.30;99.90;;;;;;7286185;19;20274;-79
2024/03/22 08:37:42;;;;;;;26.50;14.13;;;13.30;99.90;;;;;;7284257;19;20548;-78
2024/03/22 08:40:09;;;;;;;26.23;15.47;;;13.20;99.90;;;;;;7283092;19;20215;-79
2024/03/22 08:42:36;;;;;;;25.93;15.00;;;13.40;99.90;;;;;;7286326;19;20192;-79
2024/03/22 08:45:04;;;;;;;29.80;15.27;;;13.60;99.90;;;;;;7285686;19;20188;-79
2024/03/22 08:47:30;;;;;;;28.73;15.40;;;13.80;99.90;;;;;;7282714;19;20205;-79
2024/03/22 08:49:57;;;;;;;24.73;14.93;;;13.80;99.90;;;;;;7305294;19;20216;-78
2024/03/22 08:52:24;;;;;;;27.00;14.50;;;13.80;99.90;;;;;;7305496;19;20185;-79
2024/03/22 08:54:53;;;;;;;30.47;15.87;;;13.80;99.90;;;;;;7284958;19;20188;-79
2024/03/22 08:57:19;;;;;;;25.67;15.23;;;13.90;99.90;;;;;;7283438;19;20296;-79
2024/03/22 08:59:45;;;;;;;27.87;15.90;;;14.10;99.90;;;;;;7282695;19;20183;-79
2024/03/22 09:02:11;;;;;;;27.57;15.63;;;14.10;99.90;;;;;;7287698;19;20562;-79
2024/03/22 09:04:39;;;;;;;30.13;16.80;;;14.10;99.90;;;;;;7285811;19;21042;-79
2024/03/22 09:07:05;;;;;;;27.57;16.20;;;14.20;99.90;;;;;;7285212;19;20206;-79
2024/03/22 09:09:31;;;;;;;28.33;16.53;;;14.10;99.90;;;;;;7283170;19;20194;-79
2024/03/22 09:11:57;;;;;;;28.80;16.30;;;14.20;99.90;;;;;;7299546;19;20673;-79
2024/03/22 09:14:23;;;;;;;30.63;16.50;;;14.30;99.90;;;;;;7303853;19;20201;-79
2024/03/22 09:16:48;;;;;;;28.77;17.20;;;14.60;99.90;;;;;;7283020;19;20747;-79
2024/03/22 09:19:14;;;;;;;27.67;16.63;;;15.00;99.90;;;;;;7286458;19;20188;-79
2024/03/22 09:21:40;;;;;;;29.70;16.87;;;14.90;99.90;;;;;;7284441;19;20189;-79
2024/03/22 09:24:06;;;;;;;29.00;16.63;;;15.00;99.90;;;;;;7285558;19;20479;-79
2024/03/22 09:26:34;;;;;;;30.33;17.13;;;15.10;99.90;;;;;;7282056;19;20846;-79
2024/03/22 09:29:01;;;;;;;27.77;17.40;;;15.20;99.90;;;;;;7280974;19;20736;-79
2024/03/22 09:31:27;;;;;;;29.97;17.70;;;15.20;99.90;;;;;;7304684;19;20218;-79
2024/03/22 09:33:53;;;;;;;31.07;18.60;;;15.40;99.90;;;;;;7296830;19;20202;-79
2024/03/22 09:36:18;;;;;;;27.60;17.37;;;15.30;99.90;;;;;;7274215;19;20189;-79
2024/03/22 09:38:44;;;;;;;28.63;16.63;;;15.40;99.90;;;;;;7284841;19;20250;-79
2024/03/22 09:41:13;;;;;;;30.37;16.10;;;15.60;99.90;;;;;;7270536;19;20202;-79
2024/03/22 09:43:39;;;;;;;29.40;17.50;;;15.70;99.90;;;;;;7284016;19;20205;-78
2024/03/22 09:46:05;;;;;;;26.67;16.30;;;15.60;99.90;;;;;;7283038;19;20278;-79
2024/03/22 09:48:33;;;;;;;26.33;15.83;;;15.60;99.90;;;;;;7284673;19;20286;-79
2024/03/22 09:51:00;;;;;;;28.53;16.37;;;15.60;99.90;;;;;;7283251;19;20254;-79
2024/03/22 09:53:28;;;;;;;25.27;14.80;;;15.60;99.90;;;;;;7305595;19;20192;-80
2024/03/22 09:55:57;;;;;;;25.97;14.77;;;15.70;99.90;;;;;;7282974;19;20205;-79
2024/03/22 09:58:24;;;;;;;26.00;14.00;;;15.70;99.90;;;;;;7284815;19;20188;-79
2024/03/22 10:00:51;;;;;;;23.20;15.10;;;15.70;99.90;;;;;;7285104;19;20186;-79
2024/03/22 10:03:17;;;;;;;26.23;14.07;;;15.80;99.90;;;;;;7279982;19;20201;-79
2024/03/22 10:05:42;;;;;;;27.97;14.57;;;15.80;99.90;;;;;;7285321;19;20190;-79
2024/03/22 10:08:09;;;;;;;27.07;20.23;;;15.90;99.90;;;;;;7285325;19;20181;-79
2024/03/22 10:10:35;;;;;;;22.17;13.33;;;16.20;99.90;;;;;;7282390;19;20279;-79
2024/03/22 10:13:01;;;;;;;19.53;12.90;;;16.20;99.90;;;;;;7283035;19;20273;-79
2024/03/22 10:15:27;;;;;;;24.27;13.70;;;16.30;99.90;;;;;;7300549;19;20219;-79
2024/03/22 10:17:56;;;;;;;23.47;13.03;;;16.20;99.90;;;;;;7299100;19;20279;-79
2024/03/22 10:20:21;;;;;;;31.23;12.83;;;16.20;99.90;;;;;;7282118;19;20307;-79
2024/03/22 10:23:00;;;;;;;21.20;13.67;;;15.90;99.90;;;;;;7283533;19;20257;-79
2024/03/22 10:25:29;;;;;;;20.90;12.93;;;15.80;99.90;;;;;;7285524;19;20214;-79
2024/03/22 10:27:56;;;;;;;22.63;13.17;;;15.70;99.90;;;;;;7285318;19;20583;-79
2024/03/22 10:30:25;;;;;;;25.47;13.57;;;15.60;99.90;;;;;;7280779;19;20585;-80
2024/03/22 10:32:51;;;;;;;27.87;14.03;;;15.60;99.90;;;;;;7278954;19;20775;-79
2024/03/22 10:35:18;;;;;;;23.17;13.30;;;15.70;99.90;;;;;;7283612;19;20266;-79
2024/03/22 10:37:44;;;;;;;24.27;12.50;;;15.60;99.90;;;;;;7282420;19;20221;-79
2024/03/22 10:40:11;;;;;;;24.73;13.10;;;15.80;99.90;;;;;;7278332;19;20196;-79
2024/03/22 10:42:41;;;;;;;23.63;12.60;;;15.70;99.90;;;;;;7282464;19;20191;-79
2024/03/22 10:45:08;;;;;;;25.43;12.90;;;15.80;99.90;;;;;;7283486;19;20217;-79
2024/03/22 10:47:36;;;;;;;25.17;12.80;;;16.10;99.90;;;;;;7281638;19;20201;-79
2024/03/22 10:50:10;;;;;;;23.17;12.17;;;16.10;99.90;;;;;;7275575;19;20250;-78
2024/03/22 10:52:45;;;;;;;23.83;11.90;;;15.90;99.90;;;;;;7283376;19;20198;-79
2024/03/22 10:55:30;;;;;;;18.67;11.57;;;16.20;99.90;;;;;;7282590;19;20187;-79
2024/03/22 10:57:57;;;;;;;19.50;11.97;;;16.40;99.90;;;;;;7280655;19;20195;-79
2024/03/22 11:00:34;;;;;;;20.47;12.47;;;16.40;99.90;;;;;;7282156;19;20242;-79
2024/03/22 11:03:04;;;;;;;18.57;11.20;;;16.30;99.90;;;;;;7261368;19;20217;-79
2024/03/22 11:05:30;;;;;;;23.13;11.37;;;16.50;99.90;;;;;;7282456;19;20305;-79
2024/03/22 11:08:06;;;;;;;17.33;10.73;;;16.50;99.90;;;;;;7304618;19;20188;-79
2024/03/22 11:10:36;;;;;;;20.30;11.17;;;16.40;99.90;;;;;;7179881;19;2005036;-79
2024/03/22 11:13:07;;;;;;;17.73;10.33;;;16.50;99.90;;;;;;7281934;19;20219;-79
2024/03/22 11:15:33;;;;;;;20.00;10.57;;;16.50;99.90;;;;;;7282360;19;20289;-79
2024/03/22 11:18:00;;;;;;;18.17;10.30;;;16.50;99.90;;;;;;7279474;19;20257;-79
2024/03/22 11:20:29;;;;;;;20.67;11.10;;;16.60;99.90;;;;;;7303635;19;20686;-79
2024/03/22 11:22:56;;;;;;;21.37;11.27;;;16.70;99.90;;;;;;7281690;19;20259;-79
2024/03/22 11:25:21;;;;;;;20.40;11.03;;;16.80;99.90;;;;;;7281476;19;20186;-80
2024/03/22 11:27:47;;;;;;;18.43;10.00;;;17.00;99.90;;;;;;7281120;19;20176;-79
2024/03/22 11:30:14;;;;;;;19.60;10.27;;;17.10;99.90;;;;;;7283631;19;20185;-79
2024/03/22 11:32:45;;;;;;;18.33;10.60;;;17.10;99.90;;;;;;7281458;19;20183;-79
2024/03/22 11:35:11;;;;;;;20.90;10.87;;;17.10;99.90;;;;;;7280768;19;20638;-79
2024/03/22 11:37:41;;;;;;;22.07;10.77;;;16.90;99.90;;;;;;7280849;19;20185;-79
2024/03/22 11:40:10;;;;;;;16.67;10.50;;;16.90;99.90;;;;;;7278951;19;20716;-79
2024/03/22 11:42:41;;;;;;;17.27;10.37;;;16.70;99.90;;;;;;7280703;19;20253;-79
2024/03/22 11:45:10;;;;;;;16.77;9.97;;;16.30;99.90;;;;;;7277816;19;20202;-79
2024/03/22 11:47:37;;;;;;;20.90;11.00;;;16.10;99.90;;;;;;7280000;19;20294;-79
2024/03/22 11:50:03;;;;;;;16.37;10.30;;;15.90;99.90;;;;;;7279812;19;20211;-79
2024/03/22 11:52:29;;;;;;;19.07;10.60;;;15.50;99.90;;;;;;7284414;19;20204;-79
2024/03/22 11:54:56;;;;;;;19.80;11.50;;;15.30;99.90;;;;;;7305945;19;20212;-79
2024/03/22 11:57:23;;;;;;;20.63;11.03;;;15.20;99.90;;;;;;7284703;19;20213;-79
2024/03/22 11:59:48;;;;;;;20.80;11.60;;;15.20;99.90;;;;;;7287543;19;20190;-79
2024/03/22 12:02:15;;;;;;;20.10;11.47;;;15.30;99.90;;;;;;7284862;19;20218;-78
2024/03/22 12:04:42;;;;;;;23.30;12.33;;;15.30;99.90;;;;;;7280704;19;20264;-79
2024/03/22 12:07:13;;;;;;;23.53;12.73;;;14.80;99.90;;;;;;7285345;19;20708;-79
2024/03/22 12:09:43;;;;;;;22.37;11.97;;;14.80;99.90;;;;;;7287394;19;20199;-79
2024/03/22 12:12:11;;;;;;;21.87;11.60;;;15.00;99.90;;;;;;7287324;19;20665;-79
2024/03/22 12:14:36;;;;;;;23.10;11.80;;;15.20;99.90;;;;;;7286449;19;20658;-79
2024/03/22 12:17:03;;;;;;;23.13;12.00;;;15.30;99.90;;;;;;7287143;19;20196;-79
2024/03/22 12:19:29;;;;;;;23.77;11.10;;;15.50;99.90;;;;;;7295153;19;20196;-79
2024/03/22 12:21:55;;;;;;;20.90;11.70;;;15.80;99.90;;;;;;7305900;19;20612;-79